sensor_id;sensor_type;location;lat;lon;timestamp;pressure;altitude;pressure_sealevel;temperature;humidity
10006;BME280;5042;42.626;23.382;2023-05-18T00:01:12;93857.50;;;12.83;100.00
10006;BME280;5042;42.626;23.382;2023-05-18T00:03:39;93878.38;;;13.03;100.00
10006;BME280;5042;42.626;23.382;2023-05-18T00:06:06;93894.28;;;12.90;100.00
10006;BME280;5042;42.626;23.382;2023-05-18T00:08:34;93889.81;;;12.90;100.00
10006;BME280;5042;42.626;23.382;2023-05-18T00:11:02;93890.69;;;12.84;100.00
10006;BME280;5042;42.626;23.382;2023-05-18T00:13:31;93886.91;;;12.73;100.00
10006;BME280;5042;42.626;23.382;2023-05-18T00:15:57;93894.41;;;12.77;100.00
10006;BME280;5042;42.626;23.382;2023-05-18T00:18:24;93898.25;;;12.74;100.00
10006;BME280;5042;42.626;23.382;2023-05-18T00:20:52;93900.50;;;12.70;100.00
10006;BME280;5042;42.626;23.382;2023-05-18T00:23:24;93895.25;;;12.70;100.00
10006;BME280;5042;42.626;23.382;2023-05-18T00:25:55;93891.25;;;12.61;100.00
10006;BME280;5042;42.626;23.382;2023-05-18T00:28:22;93892.81;;;12.69;100.00
10006;BME280;5042;42.626;23.382;2023-05-18T00:30:51;93899.31;;;12.66;100.00
10006;BME280;5042;42.626;23.382;2023-05-18T00:33:18;93896.47;;;12.68;100.00
10006;BME280;5042;42.626;23.382;2023-05-18T00:35:45;93901.31;;;12.71;100.00
10006;BME280;5042;42.626;23.382;2023-05-18T00:38:13;93892.84;;;12.62;100.00
10006;BME280;5042;42.626;23.382;2023-05-18T00:40:40;93895.59;;;12.74;100.00
10006;BME280;5042;42.626;23.382;2023-05-18T00:43:07;93896.81;;;12.78;100.00
10006;BME280;5042;42.626;23.382;2023-05-18T00:45:35;93893.56;;;12.76;100.00
10006;BME280;5042;42.626;23.382;2023-05-18T00:48:03;93890.75;;;12.78;100.00
10006;BME280;5042;42.626;23.382;2023-05-18T00:50:30;93893.16;;;12.79;100.00
10006;BME280;5042;42.626;23.382;2023-05-18T00:52:57;93883.44;;;12.80;100.00
10006;BME280;5042;42.626;23.382;2023-05-18T00:55:23;93885.19;;;12.86;100.00
10006;BME280;5042;42.626;23.382;2023-05-18T00:57:52;93886.22;;;12.85;100.00
10006;BME280;5042;42.626;23.382;2023-05-18T01:00:20;93891.09;;;12.81;100.00
10006;BME280;5042;42.626;23.382;2023-05-18T01:02:48;93885.47;;;12.78;100.00
10006;BME280;5042;42.626;23.382;2023-05-18T01:05:16;93884.03;;;12.82;100.00
10006;BME280;5042;42.626;23.382;2023-05-18T01:07:44;93884.25;;;12.80;100.00
10006;BME280;5042;42.626;23.382;2023-05-18T01:10:13;93882.22;;;12.82;100.00
10006;BME280;5042;42.626;23.382;2023-05-18T01:12:44;93891.94;;;12.82;100.00
10006;BME280;5042;42.626;23.382;2023-05-18T01:15:15;93867.34;;;12.69;100.00
10006;BME280;5042;42.626;23.382;2023-05-18T01:17:56;93880.97;;;12.85;100.00
10006;BME280;5042;42.626;23.382;2023-05-18T01:20:35;93884.03;;;12.82;100.00
10006;BME280;5042;42.626;23.382;2023-05-18T01:23:39;93888.91;;;12.78;100.00
10006;BME280;5042;42.626;23.382;2023-05-18T01:26:15;93867.44;;;12.81;100.00
10006;BME280;5042;42.626;23.382;2023-05-18T01:28:50;93884.00;;;12.88;100.00
10006;BME280;5042;42.626;23.382;2023-05-18T01:31:17;93888.53;;;13.00;100.00
10006;BME280;5042;42.626;23.382;2023-05-18T01:33:45;93890.06;;;13.07;100.00
10006;BME280;5042;42.626;23.382;2023-05-18T01:36:11;93879.84;;;12.99;100.00
10006;BME280;5042;42.626;23.382;2023-05-18T01:38:39;93897.56;;;13.10;100.00
10006;BME280;5042;42.626;23.382;2023-05-18T01:41:11;93893.25;;;13.16;100.00
10006;BME280;5042;42.626;23.382;2023-05-18T01:43:47;93884.75;;;13.14;100.00
10006;BME280;5042;42.626;23.382;2023-05-18T01:46:24;93884.09;;;13.19;100.00
10006;BME280;5042;42.626;23.382;2023-05-18T01:48:57;93888.78;;;13.16;100.00
10006;BME280;5042;42.626;23.382;2023-05-18T01:51:28;93887.63;;;13.12;100.00
10006;BME280;5042;42.626;23.382;2023-05-18T01:54:01;93895.63;;;12.99;100.00
10006;BME280;5042;42.626;23.382;2023-05-18T01:56:29;93899.22;;;13.05;100.00
10006;BME280;5042;42.626;23.382;2023-05-18T01:58:58;93901.38;;;13.14;100.00
10006;BME280;5042;42.626;23.382;2023-05-18T02:01:25;93897.72;;;13.15;100.00
10006;BME280;5042;42.626;23.382;2023-05-18T02:03:52;93900.94;;;13.18;100.00
10006;BME280;5042;42.626;23.382;2023-05-18T02:06:19;93901.03;;;13.04;100.00
10006;BME280;5042;42.626;23.382;2023-05-18T02:08:46;93906.03;;;13.12;100.00
10006;BME280;5042;42.626;23.382;2023-05-18T02:11:13;93897.75;;;13.09;100.00
10006;BME280;5042;42.626;23.382;2023-05-18T02:13:39;93911.50;;;13.11;100.00
10006;BME280;5042;42.626;23.382;2023-05-18T02:16:08;93907.03;;;13.11;100.00
10006;BME280;5042;42.626;23.382;2023-05-18T02:18:36;93908.22;;;13.15;100.00
10006;BME280;5042;42.626;23.382;2023-05-18T02:21:03;93902.53;;;13.19;100.00
10006;BME280;5042;42.626;23.382;2023-05-18T02:23:29;93880.72;;;13.11;100.00
10006;BME280;5042;42.626;23.382;2023-05-18T02:25:56;93906.94;;;13.25;100.00
10006;BME280;5042;42.626;23.382;2023-05-18T02:28:23;93897.63;;;13.29;100.00
10006;BME280;5042;42.626;23.382;2023-05-18T02:30:50;93898.19;;;13.31;100.00
10006;BME280;5042;42.626;23.382;2023-05-18T02:33:18;93899.63;;;13.27;100.00
10006;BME280;5042;42.626;23.382;2023-05-18T02:35:51;93903.56;;;13.18;100.00
10006;BME280;5042;42.626;23.382;2023-05-18T02:38:18;93902.13;;;13.22;100.00
10006;BME280;5042;42.626;23.382;2023-05-18T02:40:45;93900.94;;;13.18;100.00
10006;BME280;5042;42.626;23.382;2023-05-18T02:43:12;93902.97;;;13.15;100.00
10006;BME280;5042;42.626;23.382;2023-05-18T02:45:39;93906.56;;;13.21;100.00
10006;BME280;5042;42.626;23.382;2023-05-18T02:48:05;93906.94;;;13.25;100.00
10006;BME280;5042;42.626;23.382;2023-05-18T02:50:34;93920.53;;;13.22;100.00
10006;BME280;5042;42.626;23.382;2023-05-18T02:53:00;93893.00;;;12.99;100.00
10006;BME280;5042;42.626;23.382;2023-05-18T02:55:27;93926.34;;;13.30;100.00
10006;BME280;5042;42.626;23.382;2023-05-18T02:57:54;93928.78;;;13.32;100.00
10006;BME280;5042;42.626;23.382;2023-05-18T03:00:22;93931.09;;;13.40;100.00
10006;BME280;5042;42.626;23.382;2023-05-18T03:02:48;93940.41;;;13.43;100.00
10006;BME280;5042;42.626;23.382;2023-05-18T03:05:15;93944.50;;;13.39;100.00
10006;BME280;5042;42.626;23.382;2023-05-18T03:07:44;93941.50;;;13.35;100.00
10006;BME280;5042;42.626;23.382;2023-05-18T03:10:15;93948.09;;;13.44;100.00
10006;BME280;5042;42.626;23.382;2023-05-18T03:12:42;93954.69;;;13.53;100.00
10006;BME280;5042;42.626;23.382;2023-05-18T03:15:10;93953.66;;;13.54;100.00
10006;BME280;5042;42.626;23.382;2023-05-18T03:17:38;93961.41;;;13.49;100.00
10006;BME280;5042;42.626;23.382;2023-05-18T03:20:06;93968.44;;;13.55;100.00
10006;BME280;5042;42.626;23.382;2023-05-18T03:22:34;93973.13;;;13.53;100.00
10006;BME280;5042;42.626;23.382;2023-05-18T03:25:03;93957.75;;;13.50;100.00
10006;BME280;5042;42.626;23.382;2023-05-18T03:27:30;93968.22;;;13.57;100.00
10006;BME280;5042;42.626;23.382;2023-05-18T03:29:57;93959.91;;;13.60;100.00
10006;BME280;5042;42.626;23.382;2023-05-18T03:32:23;93966.22;;;13.52;100.00
10006;BME280;5042;42.626;23.382;2023-05-18T03:34:52;93969.59;;;13.41;100.00
10006;BME280;5042;42.626;23.382;2023-05-18T03:37:20;93973.47;;;13.39;100.00
10006;BME280;5042;42.626;23.382;2023-05-18T03:39:47;93974.91;;;13.34;100.00
10006;BME280;5042;42.626;23.382;2023-05-18T03:42:15;93983.59;;;13.35;100.00
10006;BME280;5042;42.626;23.382;2023-05-18T03:44:42;93974.53;;;13.31;100.00
10006;BME280;5042;42.626;23.382;2023-05-18T03:47:09;93975.66;;;13.42;100.00
10006;BME280;5042;42.626;23.382;2023-05-18T03:49:36;93978.25;;;13.48;100.00
10006;BME280;5042;42.626;23.382;2023-05-18T03:52:03;93980.44;;;13.51;100.00
10006;BME280;5042;42.626;23.382;2023-05-18T03:54:30;93983.75;;;13.40;100.00
10006;BME280;5042;42.626;23.382;2023-05-18T03:56:58;93984.22;;;13.37;100.00
10006;BME280;5042;42.626;23.382;2023-05-18T03:59:26;93988.50;;;13.31;100.00
10006;BME280;5042;42.626;23.382;2023-05-18T04:01:53;93988.50;;;13.31;100.00
10006;BME280;5042;42.626;23.382;2023-05-18T04:04:20;93994.41;;;13.27;100.00
10006;BME280;5042;42.626;23.382;2023-05-18T04:06:48;93998.81;;;13.33;100.00
10006;BME280;5042;42.626;23.382;2023-05-18T04:09:16;94007.63;;;13.45;100.00
10006;BME280;5042;42.626;23.382;2023-05-18T04:11:43;93938.84;;;12.85;100.00
10006;BME280;5042;42.626;23.382;2023-05-18T04:14:10;93994.25;;;13.22;100.00
10006;BME280;5042;42.626;23.382;2023-05-18T04:16:40;93986.00;;;13.11;100.00
10006;BME280;5042;42.626;23.382;2023-05-18T04:19:07;94012.66;;;13.22;100.00
10006;BME280;5042;42.626;23.382;2023-05-18T04:21:34;94006.81;;;13.20;100.00
10006;BME280;5042;42.626;23.382;2023-05-18T04:24:02;94004.16;;;13.20;100.00
10006;BME280;5042;42.626;23.382;2023-05-18T04:26:32;94002.28;;;13.27;100.00
10006;BME280;5042;42.626;23.382;2023-05-18T04:29:00;93994.44;;;13.20;100.00
10006;BME280;5042;42.626;23.382;2023-05-18T04:31:27;94006.94;;;13.31;100.00
10006;BME280;5042;42.626;23.382;2023-05-18T04:33:55;94009.34;;;13.33;100.00
10006;BME280;5042;42.626;23.382;2023-05-18T04:36:24;94005.72;;;13.34;100.00
10006;BME280;5042;42.626;23.382;2023-05-18T04:38:55;94006.88;;;13.38;100.00
10006;BME280;5042;42.626;23.382;2023-05-18T04:41:22;94011.72;;;13.41;100.00
10006;BME280;5042;42.626;23.382;2023-05-18T04:43:49;94006.22;;;13.43;100.00
10006;BME280;5042;42.626;23.382;2023-05-18T04:46:16;94017.03;;;13.34;100.00
10006;BME280;5042;42.626;23.382;2023-05-18T04:48:43;94021.22;;;13.42;100.00
10006;BME280;5042;42.626;23.382;2023-05-18T04:51:15;94023.91;;;13.35;100.00
10006;BME280;5042;42.626;23.382;2023-05-18T04:53:46;94013.59;;;13.34;100.00
10006;BME280;5042;42.626;23.382;2023-05-18T04:56:14;94025.97;;;13.27;100.00
10006;BME280;5042;42.626;23.382;2023-05-18T04:58:41;94029.44;;;13.27;100.00
10006;BME280;5042;42.626;23.382;2023-05-18T05:01:10;94036.41;;;13.40;100.00
10006;BME280;5042;42.626;23.382;2023-05-18T05:03:37;94036.84;;;13.37;100.00
10006;BME280;5042;42.626;23.382;2023-05-18T05:06:04;94042.72;;;13.39;100.00
10006;BME280;5042;42.626;23.382;2023-05-18T05:08:32;94044.16;;;13.35;100.00
10006;BME280;5042;42.626;23.382;2023-05-18T05:10:59;94048.41;;;13.36;100.00
10006;BME280;5042;42.626;23.382;2023-05-18T05:13:26;94047.22;;;13.32;100.00
10006;BME280;5042;42.626;23.382;2023-05-18T05:15:52;94049.59;;;13.40;100.00
10006;BME280;5042;42.626;23.382;2023-05-18T05:18:19;94054.16;;;13.51;100.00
10006;BME280;5042;42.626;23.382;2023-05-18T05:20:48;94053.72;;;13.54;100.00
10006;BME280;5042;42.626;23.382;2023-05-18T05:23:15;94054.56;;;13.55;100.00
10006;BME280;5042;42.626;23.382;2023-05-18T05:25:43;94051.63;;;13.63;100.00
10006;BME280;5042;42.626;23.382;2023-05-18T05:28:10;94061.38;;;13.63;100.00
10006;BME280;5042;42.626;23.382;2023-05-18T05:30:37;94065.84;;;13.62;100.00
10006;BME280;5042;42.626;23.382;2023-05-18T05:33:05;94061.38;;;13.63;100.00
10006;BME280;5042;42.626;23.382;2023-05-18T05:35:32;94064.16;;;13.68;100.00
10006;BME280;5042;42.626;23.382;2023-05-18T05:37:58;94063.84;;;13.57;100.00
10006;BME280;5042;42.626;23.382;2023-05-18T05:40:25;94060.94;;;13.66;100.00
10006;BME280;5042;42.626;23.382;2023-05-18T05:42:53;94070.88;;;13.64;100.00
10006;BME280;5042;42.626;23.382;2023-05-18T05:45:20;94067.50;;;13.56;100.00
10006;BME280;5042;42.626;23.382;2023-05-18T05:47:48;94045.66;;;13.49;100.00
10006;BME280;5042;42.626;23.382;2023-05-18T05:50:15;94075.72;;;13.67;100.00
10006;BME280;5042;42.626;23.382;2023-05-18T05:52:42;94061.31;;;13.69;100.00
10006;BME280;5042;42.626;23.382;2023-05-18T05:55:08;94066.59;;;13.69;100.00
10006;BME280;5042;42.626;23.382;2023-05-18T05:57:35;94070.47;;;13.67;100.00
10006;BME280;5042;42.626;23.382;2023-05-18T06:00:07;94062.97;;;13.64;100.00
10006;BME280;5042;42.626;23.382;2023-05-18T06:02:34;94070.03;;;13.70;100.00
10006;BME280;5042;42.626;23.382;2023-05-18T06:05:01;94076.28;;;13.69;100.00
10006;BME280;5042;42.626;23.382;2023-05-18T06:07:28;94078.28;;;13.73;100.00
10006;BME280;5042;42.626;23.382;2023-05-18T06:09:55;94072.91;;;13.62;100.00
10006;BME280;5042;42.626;23.382;2023-05-18T06:12:21;94070.50;;;13.60;100.00
10006;BME280;5042;42.626;23.382;2023-05-18T06:14:48;94078.38;;;13.67;100.00
10006;BME280;5042;42.626;23.382;2023-05-18T06:17:18;94080.31;;;13.71;100.00
10006;BME280;5042;42.626;23.382;2023-05-18T06:19:45;94085.19;;;13.74;100.00
10006;BME280;5042;42.626;23.382;2023-05-18T06:22:12;94082.31;;;13.51;100.00
10006;BME280;5042;42.626;23.382;2023-05-18T06:24:38;94087.63;;;13.44;100.00
10006;BME280;5042;42.626;23.382;2023-05-18T06:27:07;94065.25;;;13.28;100.00
10006;BME280;5042;42.626;23.382;2023-05-18T06:29:34;94096.19;;;13.40;100.00
10006;BME280;5042;42.626;23.382;2023-05-18T06:32:00;94103.88;;;13.41;100.00
10006;BME280;5042;42.626;23.382;2023-05-18T06:34:28;94107.66;;;13.45;100.00
10006;BME280;5042;42.626;23.382;2023-05-18T06:36:55;94110.97;;;13.41;100.00
10006;BME280;5042;42.626;23.382;2023-05-18T06:39:22;94120.84;;;13.45;100.00
10006;BME280;5042;42.626;23.382;2023-05-18T06:41:49;94113.78;;;13.46;100.00
10006;BME280;5042;42.626;23.382;2023-05-18T06:44:16;94122.06;;;13.43;100.00
10006;BME280;5042;42.626;23.382;2023-05-18T06:46:43;94120.25;;;13.43;100.00
10006;BME280;5042;42.626;23.382;2023-05-18T06:49:13;94123.31;;;13.40;100.00
10006;BME280;5042;42.626;23.382;2023-05-18T06:51:41;94124.66;;;13.49;100.00
10006;BME280;5042;42.626;23.382;2023-05-18T06:54:08;94126.06;;;13.52;100.00
10006;BME280;5042;42.626;23.382;2023-05-18T06:56:35;94130.06;;;13.61;100.00
10006;BME280;5042;42.626;23.382;2023-05-18T06:59:01;94133.09;;;13.65;100.00
10006;BME280;5042;42.626;23.382;2023-05-18T07:01:28;94133.25;;;13.70;100.00
10006;BME280;5042;42.626;23.382;2023-05-18T07:03:55;94143.50;;;13.78;100.00
10006;BME280;5042;42.626;23.382;2023-05-18T07:06:22;94142.66;;;13.84;100.00
10006;BME280;5042;42.626;23.382;2023-05-18T07:08:50;94143.53;;;13.71;100.00
10006;BME280;5042;42.626;23.382;2023-05-18T07:11:17;94144.69;;;13.82;100.00
10006;BME280;5042;42.626;23.382;2023-05-18T07:13:43;94150.41;;;13.79;100.00
10006;BME280;5042;42.626;23.382;2023-05-18T07:16:10;94152.59;;;13.82;100.00
10006;BME280;5042;42.626;23.382;2023-05-18T07:18:37;94158.31;;;13.79;100.00
10006;BME280;5042;42.626;23.382;2023-05-18T07:21:06;94165.44;;;13.72;100.00
10006;BME280;5042;42.626;23.382;2023-05-18T07:23:33;94154.75;;;13.67;100.00
10006;BME280;5042;42.626;23.382;2023-05-18T07:26:01;94160.03;;;13.67;100.00
10006;BME280;5042;42.626;23.382;2023-05-18T07:28:27;94162.69;;;13.60;100.00
10006;BME280;5042;42.626;23.382;2023-05-18T07:30:54;94165.09;;;13.62;100.00
10006;BME280;5042;42.626;23.382;2023-05-18T07:33:21;94168.38;;;13.57;100.00
10006;BME280;5042;42.626;23.382;2023-05-18T07:35:48;94166.72;;;13.63;100.00
10006;BME280;5042;42.626;23.382;2023-05-18T07:38:14;94177.22;;;13.69;100.00
10006;BME280;5042;42.626;23.382;2023-05-18T07:40:41;94176.38;;;13.69;100.00
10006;BME280;5042;42.626;23.382;2023-05-18T07:43:09;94178.06;;;13.63;100.00
10006;BME280;5042;42.626;23.382;2023-05-18T07:45:36;94186.75;;;13.64;100.00
10006;BME280;5042;42.626;23.382;2023-05-18T07:48:03;94174.69;;;13.49;100.00
10006;BME280;5042;42.626;23.382;2023-05-18T07:50:29;94190.13;;;13.46;100.00
10006;BME280;5042;42.626;23.382;2023-05-18T07:52:56;94179.88;;;13.24;100.00
10006;BME280;5042;42.626;23.382;2023-05-18T07:55:23;94191.88;;;13.13;100.00
10006;BME280;5042;42.626;23.382;2023-05-18T07:57:50;94182.16;;;13.07;100.00
10006;BME280;5042;42.626;23.382;2023-05-18T08:00:19;94196.13;;;13.14;100.00
10006;BME280;5042;42.626;23.382;2023-05-18T08:02:47;94198.94;;;13.20;100.00
10006;BME280;5042;42.626;23.382;2023-05-18T08:05:14;94199.31;;;13.23;100.00
10006;BME280;5042;42.626;23.382;2023-05-18T08:07:40;94204.81;;;13.15;100.00
10006;BME280;5042;42.626;23.382;2023-05-18T08:10:08;94206.00;;;13.19;100.00
10006;BME280;5042;42.626;23.382;2023-05-18T08:12:34;94212.53;;;13.10;100.00
10006;BME280;5042;42.626;23.382;2023-05-18T08:15:01;94219.59;;;13.09;100.00
10006;BME280;5042;42.626;23.382;2023-05-18T08:17:30;94221.41;;;13.15;100.00
10006;BME280;5042;42.626;23.382;2023-05-18T08:19:56;94218.44;;;13.05;100.00
10006;BME280;5042;42.626;23.382;2023-05-18T08:22:24;94220.47;;;13.03;100.00
10006;BME280;5042;42.626;23.382;2023-05-18T08:24:51;94227.31;;;13.04;100.00
10006;BME280;5042;42.626;23.382;2023-05-18T08:27:18;94235.81;;;13.13;100.00
10006;BME280;5042;42.626;23.382;2023-05-18T08:29:46;94237.44;;;13.07;100.00
10006;BME280;5042;42.626;23.382;2023-05-18T08:32:13;94241.50;;;13.03;100.00
10006;BME280;5042;42.626;23.382;2023-05-18T08:34:41;94243.91;;;13.11;100.00
10006;BME280;5042;42.626;23.382;2023-05-18T08:37:08;94249.38;;;13.10;100.00
10006;BME280;5042;42.626;23.382;2023-05-18T08:39:34;94253.63;;;13.11;100.00
10006;BME280;5042;42.626;23.382;2023-05-18T08:42:06;94252.03;;;13.03;100.00
10006;BME280;5042;42.626;23.382;2023-05-18T08:44:39;94246.59;;;12.98;100.00
10006;BME280;5042;42.626;23.382;2023-05-18T08:47:08;94256.06;;;13.12;100.00
10006;BME280;5042;42.626;23.382;2023-05-18T08:49:35;94259.28;;;13.14;100.00
10006;BME280;5042;42.626;23.382;2023-05-18T08:52:04;94258.13;;;12.97;100.00
10006;BME280;5042;42.626;23.382;2023-05-18T08:54:35;94270.84;;;13.00;100.00
10006;BME280;5042;42.626;23.382;2023-05-18T08:57:03;94265.41;;;12.95;100.00
10006;BME280;5042;42.626;23.382;2023-05-18T08:59:38;94272.03;;;13.11;100.00
10006;BME280;5042;42.626;23.382;2023-05-18T09:02:05;94273.88;;;13.04;100.00
10006;BME280;5042;42.626;23.382;2023-05-18T09:04:32;94273.72;;;12.99;100.00
10006;BME280;5042;42.626;23.382;2023-05-18T09:07:00;94281.97;;;13.02;100.00
10006;BME280;5042;42.626;23.382;2023-05-18T09:09:30;94283.00;;;13.08;100.00
10006;BME280;5042;42.626;23.382;2023-05-18T09:11:57;94288.03;;;13.09;100.00
10006;BME280;5042;42.626;23.382;2023-05-18T09:14:25;94289.06;;;13.08;100.00
10006;BME280;5042;42.626;23.382;2023-05-18T09:16:51;94289.25;;;13.13;100.00
10006;BME280;5042;42.626;23.382;2023-05-18T09:19:18;94289.66;;;13.17;100.00
10006;BME280;5042;42.626;23.382;2023-05-18T09:21:45;94286.81;;;13.12;100.00
10006;BME280;5042;42.626;23.382;2023-05-18T09:24:12;94294.09;;;13.16;100.00
10006;BME280;5042;42.626;23.382;2023-05-18T09:26:41;94267.03;;;12.96;100.00
10006;BME280;5042;42.626;23.382;2023-05-18T09:29:17;94291.06;;;13.20;100.00
10006;BME280;5042;42.626;23.382;2023-05-18T09:31:45;94293.69;;;13.20;100.00
10006;BME280;5042;42.626;23.382;2023-05-18T09:34:11;94293.28;;;13.09;100.00
10006;BME280;5042;42.626;23.382;2023-05-18T09:36:38;94295.53;;;13.12;100.00
10006;BME280;5042;42.626;23.382;2023-05-18T09:39:08;94304.63;;;13.16;100.00
10006;BME280;5042;42.626;23.382;2023-05-18T09:41:36;94279.75;;;13.12;100.00
10006;BME280;5042;42.626;23.382;2023-05-18T09:44:05;94300.81;;;13.06;100.00
10006;BME280;5042;42.626;23.382;2023-05-18T09:46:34;94305.84;;;13.07;100.00
10006;BME280;5042;42.626;23.382;2023-05-18T09:49:03;94305.47;;;13.10;100.00
10006;BME280;5042;42.626;23.382;2023-05-18T09:51:30;94308.47;;;13.07;100.00
10006;BME280;5042;42.626;23.382;2023-05-18T09:54:00;94311.94;;;13.01;100.00
10006;BME280;5042;42.626;23.382;2023-05-18T09:56:29;94302.84;;;12.97;100.00
10006;BME280;5042;42.626;23.382;2023-05-18T09:58:57;94310.13;;;13.02;100.00
10006;BME280;5042;42.626;23.382;2023-05-18T10:01:25;94317.22;;;13.08;100.00
10006;BME280;5042;42.626;23.382;2023-05-18T10:03:51;94323.28;;;13.08;100.00
10006;BME280;5042;42.626;23.382;2023-05-18T10:06:18;94318.00;;;13.08;100.00
10006;BME280;5042;42.626;23.382;2023-05-18T10:08:46;94316.97;;;13.23;100.00
10006;BME280;5042;42.626;23.382;2023-05-18T10:11:17;94316.53;;;13.26;100.00
10006;BME280;5042;42.626;23.382;2023-05-18T10:13:46;94320.41;;;13.30;100.00
10006;BME280;5042;42.626;23.382;2023-05-18T10:16:14;94314.53;;;13.21;100.00
10006;BME280;5042;42.626;23.382;2023-05-18T10:18:42;94325.25;;;13.33;100.00
10006;BME280;5042;42.626;23.382;2023-05-18T10:21:10;94315.13;;;13.43;100.00
10006;BME280;5042;42.626;23.382;2023-05-18T10:23:39;94319.53;;;13.49;100.00
10006;BME280;5042;42.626;23.382;2023-05-18T10:26:06;94280.09;;;13.36;100.00
10006;BME280;5042;42.626;23.382;2023-05-18T10:28:37;94313.84;;;13.52;100.00
10006;BME280;5042;42.626;23.382;2023-05-18T10:31:07;94332.84;;;13.68;100.00
10006;BME280;5042;42.626;23.382;2023-05-18T10:33:35;94319.50;;;13.63;100.00
10006;BME280;5042;42.626;23.382;2023-05-18T10:36:05;94339.53;;;13.64;100.00
10006;BME280;5042;42.626;23.382;2023-05-18T10:38:35;94335.47;;;13.68;100.00
10006;BME280;5042;42.626;23.382;2023-05-18T10:41:04;94326.78;;;13.61;100.00
10006;BME280;5042;42.626;23.382;2023-05-18T10:43:32;94342.16;;;13.70;100.00
10006;BME280;5042;42.626;23.382;2023-05-18T10:46:00;94317.94;;;13.48;100.00
10006;BME280;5042;42.626;23.382;2023-05-18T10:48:28;94338.28;;;13.73;100.00
10006;BME280;5042;42.626;23.382;2023-05-18T10:50:56;94347.41;;;13.77;100.00
10006;BME280;5042;42.626;23.382;2023-05-18T10:53:26;94363.25;;;13.64;100.00
10006;BME280;5042;42.626;23.382;2023-05-18T10:55:54;94345.50;;;13.39;100.00
10006;BME280;5042;42.626;23.382;2023-05-18T10:58:24;94372.16;;;13.69;100.00
10006;BME280;5042;42.626;23.382;2023-05-18T11:00:53;94357.59;;;13.60;100.00
10006;BME280;5042;42.626;23.382;2023-05-18T11:03:20;94372.19;;;13.56;100.00
10006;BME280;5042;42.626;23.382;2023-05-18T11:05:50;94378.69;;;13.53;100.00
10006;BME280;5042;42.626;23.382;2023-05-18T11:08:25;94378.25;;;13.56;100.00
10006;BME280;5042;42.626;23.382;2023-05-18T11:10:59;94378.69;;;13.53;100.00
10006;BME280;5042;42.626;23.382;2023-05-18T11:13:28;94378.69;;;13.53;100.00
10006;BME280;5042;42.626;23.382;2023-05-18T11:16:05;94376.03;;;13.53;100.00
10006;BME280;5042;42.626;23.382;2023-05-18T11:18:41;94372.19;;;13.49;100.00
10006;BME280;5042;42.626;23.382;2023-05-18T11:21:48;94403.97;;;13.61;100.00
10006;BME280;5042;42.626;23.382;2023-05-18T11:24:30;94400.00;;;13.39;100.00
10006;BME280;5042;42.626;23.382;2023-05-18T11:26:58;94405.88;;;13.34;100.00
10006;BME280;5042;42.626;23.382;2023-05-18T11:29:33;94400.22;;;13.17;100.00
10006;BME280;5042;42.626;23.382;2023-05-18T11:32:01;94415.00;;;12.98;100.00
10006;BME280;5042;42.626;23.382;2023-05-18T11:34:49;94421.44;;;12.76;100.00
10006;BME280;5042;42.626;23.382;2023-05-18T11:37:24;94420.03;;;12.66;100.00
10006;BME280;5042;42.626;23.382;2023-05-18T11:40:08;94418.00;;;12.68;100.00
10006;BME280;5042;42.626;23.382;2023-05-18T11:42:35;94422.03;;;12.64;100.00
10006;BME280;5042;42.626;23.382;2023-05-18T11:45:06;94419.19;;;12.59;100.00
10006;BME280;5042;42.626;23.382;2023-05-18T11:47:34;94419.78;;;12.48;100.00
10006;BME280;5042;42.626;23.382;2023-05-18T11:50:05;94415.16;;;12.43;100.00
10006;BME280;5042;42.626;23.382;2023-05-18T11:52:32;94423.03;;;12.50;100.00
10006;BME280;5042;42.626;23.382;2023-05-18T11:55:12;94415.78;;;12.59;100.00
10006;BME280;5042;42.626;23.382;2023-05-18T11:57:41;94409.09;;;12.56;100.00
10006;BME280;5042;42.626;23.382;2023-05-18T12:00:10;94413.34;;;12.57;100.00
10006;BME280;5042;42.626;23.382;2023-05-18T12:02:37;94403.63;;;12.64;100.00
10006;BME280;5042;42.626;23.382;2023-05-18T12:05:08;94347.41;;;12.39;100.00
10006;BME280;5042;42.626;23.382;2023-05-18T12:07:35;94407.09;;;12.78;100.00
10006;BME280;5042;42.626;23.382;2023-05-18T12:10:06;94411.13;;;12.81;100.00
10006;BME280;5042;42.626;23.382;2023-05-18T12:12:35;94407.69;;;12.87;100.00
10006;BME280;5042;42.626;23.382;2023-05-18T12:15:03;94407.28;;;12.90;100.00
10006;BME280;5042;42.626;23.382;2023-05-18T12:17:37;94387.25;;;12.82;100.00
10006;BME280;5042;42.626;23.382;2023-05-18T12:20:07;94414.38;;;12.96;100.00
10006;BME280;5042;42.626;23.382;2023-05-18T12:22:34;94394.94;;;12.90;100.00
10006;BME280;5042;42.626;23.382;2023-05-18T12:25:01;94406.28;;;12.91;100.00
10006;BME280;5042;42.626;23.382;2023-05-18T12:27:28;94408.94;;;12.91;100.00
10006;BME280;5042;42.626;23.382;2023-05-18T12:29:56;94405.06;;;12.87;100.00
10006;BME280;5042;42.626;23.382;2023-05-18T12:32:23;94403.06;;;12.89;100.00
10006;BME280;5042;42.626;23.382;2023-05-18T12:34:50;94405.47;;;12.90;100.00
10006;BME280;5042;42.626;23.382;2023-05-18T12:37:17;94405.47;;;12.97;100.00
10006;BME280;5042;42.626;23.382;2023-05-18T12:39:50;94398.97;;;13.06;100.00
10006;BME280;5042;42.626;23.382;2023-05-18T12:42:17;94403.84;;;13.09;100.00
10006;BME280;5042;42.626;23.382;2023-05-18T12:44:45;94407.25;;;13.16;100.00
10006;BME280;5042;42.626;23.382;2023-05-18T12:47:13;94404.25;;;13.20;100.00
10006;BME280;5042;42.626;23.382;2023-05-18T12:49:46;94404.84;;;13.15;100.00
10006;BME280;5042;42.626;23.382;2023-05-18T12:52:14;94352.03;;;12.90;100.00
10006;BME280;5042;42.626;23.382;2023-05-18T12:54:52;94402.22;;;13.22;100.00
10006;BME280;5042;42.626;23.382;2023-05-18T12:57:25;94402.22;;;13.22;100.00